Time;durP1;ratioP1;P1;durP2;ratioP2;P2;SDS_P1;SDS_P2;PMS_P1;PMS_P2;Temp;Humidity;BMP_temperature;BMP_pressure;BME280_temperature;BME280_humidity;BME280_pressure;Samples;Min_cycle;Max_cycle;Signal;HPM_P1;HPM_P2
2021/01/31 00:00:56;;;;;;;16.20;9.23;;;1.50;83.40;;;;;;5071730;28;20033;-78
2021/01/31 00:03:25;;;;;;;14.35;9.15;;;1.50;83.50;;;;;;5089859;28;20121;-77
2021/01/31 00:05:53;;;;;;;13.85;8.85;;;1.40;83.50;;;;;;5092120;28;20392;-78
2021/01/31 00:08:21;;;;;;;13.00;8.05;;;1.40;83.50;;;;;;5095177;28;20462;-78
2021/01/31 00:10:48;;;;;;;14.88;9.27;;;1.40;83.60;;;;;;5094898;28;20027;-75
2021/01/31 00:13:15;;;;;;;15.52;9.00;;;1.40;83.60;;;;;;5097072;28;20028;-75
2021/01/31 00:15:43;;;;;;;13.98;9.15;;;1.40;83.40;;;;;;5096323;28;20020;-75
2021/01/31 00:18:10;;;;;;;12.50;8.70;;;1.40;83.40;;;;;;5096260;28;20070;-76
2021/01/31 00:20:37;;;;;;;13.57;9.40;;;1.40;83.40;;;;;;5095314;28;20060;-75
2021/01/31 00:23:04;;;;;;;13.75;9.15;;;1.40;83.50;;;;;;5096433;28;20029;-75
2021/01/31 00:25:30;;;;;;;15.23;9.48;;;1.40;83.50;;;;;;5074887;28;20025;-75
2021/01/31 00:27:56;;;;;;;15.70;9.68;;;1.40;83.50;;;;;;5089133;28;20020;-75
2021/01/31 00:30:32;;;;;;;14.43;8.63;;;1.40;83.60;;;;;;5078612;28;20023;-75
2021/01/31 00:32:58;;;;;;;12.85;9.18;;;1.30;83.50;;;;;;5096506;28;20095;-75
2021/01/31 00:35:27;;;;;;;14.30;8.77;;;1.30;83.50;;;;;;5095179;28;20457;-75
2021/01/31 00:37:53;;;;;;;15.75;8.98;;;1.30;83.50;;;;;;5094896;28;20032;-75
2021/01/31 00:40:19;;;;;;;13.75;8.95;;;1.30;83.40;;;;;;5095872;28;20378;-75
2021/01/31 00:42:46;;;;;;;17.77;9.50;;;1.30;83.50;;;;;;5095249;28;20032;-75
2021/01/31 00:45:16;;;;;;;13.75;8.68;;;1.30;83.70;;;;;;5094724;28;20105;-75
2021/01/31 00:47:42;;;;;;;13.30;8.73;;;1.30;83.80;;;;;;5094865;28;20020;-75
2021/01/31 00:50:17;;;;;;;18.00;10.48;;;1.30;83.80;;;;;;5077779;28;20024;-75
2021/01/31 00:52:42;;;;;;;14.75;9.10;;;1.20;83.80;;;;;;5095915;28;20453;-75
2021/01/31 00:55:08;;;;;;;13.80;9.77;;;1.20;83.80;;;;;;5095704;28;20062;-75
2021/01/31 00:57:34;;;;;;;16.65;9.38;;;1.20;83.90;;;;;;5095599;28;20028;-75
2021/01/31 01:00:00;;;;;;;15.00;9.88;;;1.20;84.00;;;;;;5095030;28;20111;-75
2021/01/31 01:02:25;;;;;;;15.02;10.00;;;1.20;84.10;;;;;;5094468;28;20043;-75
2021/01/31 01:04:51;;;;;;;16.27;10.35;;;1.20;84.20;;;;;;5077364;28;20032;-78
2021/01/31 01:07:18;;;;;;;14.63;9.15;;;1.10;84.30;;;;;;5095554;28;20016;-78
2021/01/31 01:09:45;;;;;;;15.57;9.55;;;1.10;84.30;;;;;;5089880;28;20081;-78
2021/01/31 01:12:11;;;;;;;14.02;9.13;;;1.10;84.40;;;;;;5087835;28;20024;-78
2021/01/31 01:14:37;;;;;;;15.65;9.95;;;1.10;84.50;;;;;;5077710;28;20031;-78
2021/01/31 01:17:03;;;;;;;14.43;9.32;;;1.10;85.10;;;;;;5093769;28;20050;-78
2021/01/31 01:19:29;;;;;;;17.02;9.82;;;1.00;84.60;;;;;;5094927;28;20023;-78
2021/01/31 01:21:57;;;;;;;17.27;9.93;;;1.00;84.70;;;;;;5094351;28;20036;-78
2021/01/31 01:24:23;;;;;;;20.35;10.30;;;1.00;84.80;;;;;;5094407;28;20036;-78
2021/01/31 01:26:48;;;;;;;16.98;9.90;;;1.00;84.90;;;;;;5077420;28;20031;-78
2021/01/31 01:29:14;;;;;;;16.67;9.70;;;1.00;85.10;;;;;;5094116;28;20096;-75
2021/01/31 01:31:40;;;;;;;16.15;9.85;;;0.90;85.10;;;;;;5094141;28;20035;-77
2021/01/31 01:34:06;;;;;;;15.98;9.95;;;0.90;85.20;;;;;;5094093;28;20032;-77
2021/01/31 01:36:32;;;;;;;14.93;10.57;;;0.90;85.30;;;;;;5094134;28;20028;-77
2021/01/31 01:38:59;;;;;;;16.52;10.48;;;0.80;85.30;;;;;;5095097;28;20085;-77
2021/01/31 01:41:25;;;;;;;16.17;10.40;;;0.80;85.40;;;;;;5076995;28;20039;-76
2021/01/31 01:43:55;;;;;;;15.30;10.68;;;0.80;85.60;;;;;;5076522;28;20064;-76
2021/01/31 01:46:27;;;;;;;17.45;10.55;;;0.70;86.40;;;;;;5093852;28;20024;-77
2021/01/31 01:49:24;;;;;;;19.15;11.23;;;0.70;86.50;;;;;;5093445;28;20103;-77
2021/01/31 01:51:57;;;;;;;15.38;10.75;;;0.70;86.10;;;;;;5092629;28;20056;-77
2021/01/31 01:54:42;;;;;;;21.20;12.15;;;0.60;86.80;;;;;;5094547;28;20027;-77
2021/01/31 01:57:11;;;;;;;20.92;10.90;;;0.60;86.30;;;;;;5093232;28;20030;-77
2021/01/31 01:59:39;;;;;;;17.52;11.65;;;0.60;86.30;;;;;;5093450;28;20024;-77
2021/01/31 02:02:12;;;;;;;16.83;11.00;;;0.60;86.40;;;;;;5094784;28;20484;-77
2021/01/31 02:04:38;;;;;;;17.10;10.75;;;0.60;86.50;;;;;;5094508;28;20519;-77
2021/01/31 02:07:04;;;;;;;16.85;11.27;;;0.60;86.50;;;;;;5076412;28;20024;-77
2021/01/31 02:09:31;;;;;;;20.35;12.02;;;0.50;86.50;;;;;;5093085;28;20480;-77
2021/01/31 02:12:00;;;;;;;17.70;11.45;;;0.50;87.30;;;;;;5075948;28;20080;-77
2021/01/31 02:14:27;;;;;;;18.33;12.30;;;0.50;86.70;;;;;;5094206;28;20032;-77
2021/01/31 02:17:01;;;;;;;17.05;11.45;;;0.50;86.80;;;;;;5092859;28;20443;-77
2021/01/31 02:19:48;;;;;;;19.40;12.18;;;0.50;87.00;;;;;;5092967;28;20024;-77
2021/01/31 02:22:44;;;;;;;16.85;10.93;;;0.50;87.00;;;;;;5093029;28;20028;-77
2021/01/31 02:25:25;;;;;;;19.63;12.32;;;0.50;87.00;;;;;;5094331;28;20053;-77
2021/01/31 02:28:03;;;;;;;18.73;11.32;;;0.40;87.00;;;;;;5093005;28;20162;-77
2021/01/31 02:31:10;;;;;;;19.65;12.65;;;0.40;87.20;;;;;;5092161;28;20020;-77
2021/01/31 02:33:48;;;;;;;20.55;11.77;;;0.30;87.30;;;;;;5083859;28;20488;-77
2021/01/31 02:36:31;;;;;;;21.13;11.70;;;0.30;87.30;;;;;;5092325;28;20384;-77
2021/01/31 02:39:10;;;;;;;21.27;11.80;;;0.30;87.40;;;;;;5091665;28;20020;-77
2021/01/31 02:41:58;;;;;;;18.13;11.70;;;0.30;87.40;;;;;;5092475;28;20130;-75
2021/01/31 02:44:27;;;;;;;14.98;9.23;;;0.30;87.60;;;;;;5091822;28;20318;-76
2021/01/31 02:46:59;;;;;;;13.02;8.55;;;0.30;87.60;;;;;;5093757;28;20082;-75
2021/01/31 02:49:38;;;;;;;19.23;12.68;;;0.20;87.60;;;;;;5093651;28;20028;-75
2021/01/31 02:52:10;;;;;;;;;;;0.20;87.70;;;;;;5092880;28;20032;-75
2021/01/31 02:55:13;;;;;;;20.45;12.45;;;0.20;87.60;;;;;;5093732;28;19904;-75
2021/01/31 02:58:20;;;;;;;18.77;12.20;;;0.20;87.90;;;;;;5092607;28;20517;-75
2021/01/31 03:01:03;;;;;;;17.63;11.57;;;0.10;87.90;;;;;;5011455;28;20038;-75
2021/01/31 03:03:42;;;;;;;19.70;12.50;;;0.10;88.00;;;;;;5011870;28;20030;-76
2021/01/31 03:06:14;;;;;;;19.35;12.80;;;0.10;87.90;;;;;;5053284;28;20039;-75
2021/01/31 03:08:45;;;;;;;21.73;14.02;;;0.10;88.10;;;;;;5072080;28;20078;-75
2021/01/31 03:11:16;;;;;;;21.02;12.63;;;0.00;88.30;;;;;;5073417;28;20021;-75
2021/01/31 03:13:58;;;;;;;18.73;11.88;;;0.00;88.40;;;;;;5079188;28;20099;-76
2021/01/31 03:16:34;;;;;;;22.40;13.25;;;0.00;88.40;;;;;;5093502;28;20079;-76
2021/01/31 03:19:08;;;;;;;18.75;12.13;;;0.00;88.30;;;;;;5093305;28;20043;-76
2021/01/31 03:21:36;;;;;;;18.42;11.70;;;0.00;88.30;;;;;;5073315;28;20036;-76
2021/01/31 03:24:37;;;;;;;18.10;12.07;;;0.00;89.00;;;;;;5082576;28;20035;-76
2021/01/31 03:27:08;;;;;;;21.75;13.68;;;0.00;88.40;;;;;;5078721;28;20043;-75
2021/01/31 03:29:34;;;;;;;22.40;13.73;;;0.00;88.40;;;;;;5092041;28;20124;-76
2021/01/31 03:32:19;;;;;;;18.75;12.63;;;-0.10;88.40;;;;;;5092184;28;20119;-75
2021/01/31 03:34:58;;;;;;;20.17;12.30;;;-0.10;88.60;;;;;;5093082;28;20028;-75
2021/01/31 03:37:48;;;;;;;20.63;13.45;;;-0.10;88.60;;;;;;5093340;28;20495;-76
2021/01/31 03:40:16;;;;;;;19.40;12.75;;;-0.10;88.70;;;;;;5092388;28;20028;-76
2021/01/31 03:42:45;;;;;;;21.98;12.35;;;-0.10;88.80;;;;;;5097003;28;20052;-75
2021/01/31 03:45:13;;;;;;;20.25;13.00;;;-0.20;88.80;;;;;;5059077;28;20373;-76
2021/01/31 03:47:49;;;;;;;19.67;12.90;;;-0.10;88.90;;;;;;5083128;28;20050;-76
2021/01/31 03:50:15;;;;;;;25.00;14.27;;;-0.20;88.80;;;;;;5097143;28;20020;-76
2021/01/31 03:52:41;;;;;;;22.27;14.15;;;-0.10;88.90;;;;;;5096993;28;20081;-76
2021/01/31 03:55:08;;;;;;;20.98;12.75;;;-0.20;88.80;;;;;;5096022;28;20117;-76
2021/01/31 03:57:41;;;;;;;18.98;12.40;;;-0.20;88.80;;;;;;5095894;28;20024;-75
2021/01/31 04:00:15;;;;;;;19.25;12.52;;;-0.20;89.00;;;;;;5097707;28;20421;-75
2021/01/31 04:02:57;;;;;;;20.23;12.88;;;-0.20;89.00;;;;;;5096938;28;20024;-75
2021/01/31 04:05:26;;;;;;;20.67;11.63;;;-0.20;89.00;;;;;;5095496;28;20547;-75
2021/01/31 04:07:54;;;;;;;25.25;14.07;;;-0.20;89.00;;;;;;5097011;28;20020;-75
2021/01/31 04:10:21;;;;;;;19.40;13.02;;;-0.30;88.90;;;;;;5096791;28;20073;-75
2021/01/31 04:12:53;;;;;;;22.00;12.90;;;-0.30;89.10;;;;;;5095683;28;20055;-75
2021/01/31 04:15:41;;;;;;;20.98;12.38;;;-0.30;89.10;;;;;;5095531;28;20444;-75
2021/01/31 04:18:08;;;;;;;18.35;12.02;;;-0.20;89.20;;;;;;5095342;28;20035;-75
2021/01/31 04:20:34;;;;;;;20.52;11.95;;;-0.30;89.00;;;;;;5095329;28;20032;-75
2021/01/31 04:23:01;;;;;;;20.48;12.27;;;-0.30;89.10;;;;;;5095390;28;20038;-75
2021/01/31 04:25:27;;;;;;;22.20;12.93;;;-0.30;89.10;;;;;;5096332;28;20028;-75
2021/01/31 04:27:54;;;;;;;20.73;11.82;;;-0.30;89.10;;;;;;5095252;28;20024;-75
2021/01/31 04:30:20;;;;;;;19.90;12.45;;;-0.30;89.00;;;;;;5096939;28;20034;-75
2021/01/31 04:32:45;;;;;;;21.13;13.50;;;-0.30;89.10;;;;;;5095275;28;20016;-75
2021/01/31 04:35:12;;;;;;;18.88;12.90;;;-0.30;89.10;;;;;;5077849;28;20045;-75
2021/01/31 04:37:38;;;;;;;20.35;13.68;;;-0.30;89.10;;;;;;5095093;28;20024;-74
2021/01/31 04:40:06;;;;;;;20.73;12.70;;;-0.30;89.00;;;;;;5078029;28;20028;-75
2021/01/31 04:42:32;;;;;;;19.63;12.30;;;-0.30;89.10;;;;;;5096583;28;20118;-75
2021/01/31 04:44:58;;;;;;;20.63;13.32;;;-0.30;89.10;;;;;;5095945;28;20516;-75
2021/01/31 04:47:39;;;;;;;19.73;12.88;;;-0.40;89.10;;;;;;5078056;28;20111;-75
2021/01/31 04:50:07;;;;;;;17.70;12.30;;;-0.40;89.20;;;;;;5094733;28;20030;-75
2021/01/31 04:52:45;;;;;;;22.10;13.98;;;-0.40;89.20;;;;;;5094726;28;20035;-75
2021/01/31 04:55:44;;;;;;;20.52;13.70;;;-0.40;89.30;;;;;;5095702;28;20024;-75
2021/01/31 04:58:17;;;;;;;24.42;12.40;;;-0.40;89.30;;;;;;5107852;28;20035;-75
2021/01/31 05:01:05;;;;;;;22.33;13.43;;;-0.40;89.30;;;;;;5103832;28;20444;-75
2021/01/31 05:03:33;;;;;;;23.88;12.85;;;-0.40;89.40;;;;;;5075230;28;20032;-75
2021/01/31 05:06:14;;;;;;;19.85;12.05;;;-0.50;89.40;;;;;;5085415;28;20085;-75
2021/01/31 05:08:40;;;;;;;25.30;12.90;;;-0.40;89.50;;;;;;5094093;28;20020;-75
2021/01/31 05:11:23;;;;;;;20.85;12.80;;;-0.50;89.40;;;;;;5076837;28;20028;-75
2021/01/31 05:14:07;;;;;;;19.50;13.93;;;-0.50;89.50;;;;;;5093883;28;20016;-75
2021/01/31 05:16:33;;;;;;;20.02;12.43;;;-0.50;89.50;;;;;;5093173;28;20024;-75
2021/01/31 05:19:02;;;;;;;20.05;11.88;;;-0.60;89.60;;;;;;5093981;28;20433;-75
2021/01/31 05:21:32;;;;;;;20.17;11.85;;;-0.60;89.60;;;;;;5093661;28;20428;-75
2021/01/31 05:24:12;;;;;;;23.80;13.57;;;-0.50;89.70;;;;;;5094234;28;20035;-75
2021/01/31 05:26:44;;;;;;;29.00;17.38;;;-0.60;89.60;;;;;;5094207;28;20020;-75
2021/01/31 05:29:18;;;;;;;25.42;17.67;;;-0.60;89.70;;;;;;5093841;28;20028;-75
2021/01/31 05:31:57;;;;;;;34.97;21.05;;;-0.60;89.80;;;;;;5093589;28;20016;-78
2021/01/31 05:34:35;;;;;;;38.38;18.80;;;-0.60;89.90;;;;;;5094109;28;20380;-78
2021/01/31 05:37:04;;;;;;;39.53;19.45;;;-0.70;89.90;;;;;;5093789;28;20028;-75
2021/01/31 05:39:38;;;;;;;58.85;24.70;;;-0.70;89.90;;;;;;5095349;28;20024;-75
2021/01/31 05:42:07;;;;;;;40.60;20.13;;;-0.70;90.00;;;;;;5091364;28;20511;-75
2021/01/31 05:44:33;;;;;;;27.95;15.65;;;-0.70;90.00;;;;;;5093898;28;20056;-75
2021/01/31 05:47:02;;;;;;;24.00;14.48;;;-0.70;90.00;;;;;;5093684;28;20078;-75
2021/01/31 05:49:46;;;;;;;20.73;12.57;;;-0.70;90.00;;;;;;5094987;28;20469;-75
2021/01/31 05:52:21;;;;;;;24.63;14.05;;;-0.70;90.00;;;;;;5093272;28;20774;-75
2021/01/31 05:54:49;;;;;;;22.60;14.27;;;-0.70;90.00;;;;;;5092056;28;20480;-75
2021/01/31 05:57:21;;;;;;;22.40;13.48;;;-0.70;90.00;;;;;;5093747;28;20036;-75
2021/01/31 05:59:46;;;;;;;21.90;14.23;;;-0.70;90.00;;;;;;5094836;28;20476;-75
2021/01/31 06:02:24;;;;;;;20.83;12.75;;;-0.80;90.00;;;;;;5093568;28;20085;-75
2021/01/31 06:05:20;;;;;;;18.77;12.18;;;-0.80;90.00;;;;;;5092973;28;20028;-76
2021/01/31 06:07:56;;;;;;;22.42;13.80;;;-0.70;90.10;;;;;;5093695;28;20440;-77
2021/01/31 06:10:23;;;;;;;24.15;14.45;;;-0.80;90.00;;;;;;5093434;28;20024;-77
2021/01/31 06:12:50;;;;;;;27.35;15.23;;;-0.70;90.00;;;;;;5095631;28;20028;-77
2021/01/31 06:15:54;;;;;;;24.65;13.90;;;-0.80;90.00;;;;;;5075697;28;20124;-77
2021/01/31 06:18:24;;;;;;;27.05;15.65;;;-0.70;90.10;;;;;;5092057;28;20023;-77
2021/01/31 06:20:50;;;;;;;29.30;14.75;;;-0.80;90.00;;;;;;5093221;28;20126;-77
2021/01/31 06:23:33;;;;;;;25.50;15.18;;;-0.80;90.00;;;;;;5075671;28;20056;-77
2021/01/31 06:26:00;;;;;;;23.95;15.20;;;-0.90;90.10;;;;;;5094393;28;20051;-77
2021/01/31 06:28:30;;;;;;;24.25;14.20;;;-0.90;90.10;;;;;;5072410;28;20376;-77
2021/01/31 06:31:05;;;;;;;25.88;14.63;;;-0.90;90.10;;;;;;5092748;28;20917;-75
2021/01/31 06:33:30;;;;;;;21.17;13.07;;;-0.90;90.10;;;;;;5094120;28;20430;-75
2021/01/31 06:36:22;;;;;;;25.58;14.93;;;-0.90;90.10;;;;;;5072498;28;20028;-76
2021/01/31 06:39:05;;;;;;;22.33;14.13;;;-0.90;90.10;;;;;;5073492;28;20040;-75
2021/01/31 06:41:43;;;;;;;24.77;14.82;;;-0.90;90.20;;;;;;5080953;28;20480;-75
2021/01/31 06:44:30;;;;;;;24.10;14.02;;;-0.90;90.20;;;;;;5093872;28;20051;-75
2021/01/31 06:47:30;;;;;;;23.65;14.27;;;-0.90;90.10;;;;;;5092737;28;20431;-75
2021/01/31 06:50:17;;;;;;;22.42;14.18;;;-0.90;90.20;;;;;;5092951;28;20368;-76
2021/01/31 06:52:50;;;;;;;24.77;14.55;;;-0.90;90.10;;;;;;5093785;28;20476;-76
2021/01/31 06:55:48;;;;;;;24.75;14.75;;;-1.00;90.10;;;;;;5093523;28;20039;-75
2021/01/31 06:58:26;;;;;;;25.65;14.20;;;-1.00;90.20;;;;;;5092646;28;20106;-75
2021/01/31 07:01:26;;;;;;;28.00;15.35;;;-1.00;90.20;;;;;;5092347;28;20058;-76
2021/01/31 07:04:04;;;;;;;31.05;16.42;;;-1.00;90.20;;;;;;5093818;28;20095;-75
2021/01/31 07:06:57;;;;;;;29.67;17.63;;;-1.00;90.40;;;;;;5088520;28;20107;-76
2021/01/31 07:10:04;;;;;;;25.80;15.02;;;-1.00;90.20;;;;;;5088113;28;20035;-76
2021/01/31 07:12:38;;;;;;;29.92;16.67;;;-1.00;90.20;;;;;;5055318;28;20032;-76
2021/01/31 07:15:13;;;;;;;30.67;17.75;;;-1.00;90.20;;;;;;5071721;28;20370;-76
2021/01/31 07:17:44;;;;;;;25.65;15.52;;;-1.10;90.10;;;;;;5077290;28;20392;-76
2021/01/31 07:20:31;;;;;;;29.02;16.98;;;-1.00;90.20;;;;;;5093584;28;20020;-77
2021/01/31 07:23:13;;;;;;;30.10;16.77;;;-1.10;90.30;;;;;;5092052;28;20488;-77
2021/01/31 07:25:44;;;;;;;34.38;18.42;;;-1.10;90.30;;;;;;5092122;28;20032;-76
2021/01/31 07:28:27;;;;;;;35.20;17.67;;;-1.10;90.30;;;;;;5092091;28;20065;-76
2021/01/31 07:30:55;;;;;;;27.52;15.88;;;-1.10;90.30;;;;;;5092218;28;20024;-77
2021/01/31 07:33:43;;;;;;;22.03;12.27;;;-1.10;90.30;;;;;;5093565;28;20020;-77
2021/01/31 07:36:12;;;;;;;26.45;15.93;;;-1.10;90.30;;;;;;5093238;28;20093;-76
2021/01/31 07:38:50;;;;;;;29.08;16.55;;;-1.10;90.30;;;;;;5093054;28;20534;-77
2021/01/31 07:41:17;;;;;;;28.73;15.80;;;-1.10;90.30;;;;;;5091223;28;20059;-77
2021/01/31 07:43:45;;;;;;;28.70;15.88;;;-1.10;90.30;;;;;;5091746;28;20130;-77
2021/01/31 07:46:16;;;;;;;28.52;16.60;;;-1.10;90.30;;;;;;5091147;28;20040;-77
2021/01/31 07:48:45;;;;;;;28.60;16.75;;;-1.00;90.30;;;;;;5092072;28;20054;-77
2021/01/31 07:51:17;;;;;;;27.05;15.85;;;-1.00;90.30;;;;;;5093157;28;20111;-77
2021/01/31 07:53:43;;;;;;;26.95;16.80;;;-1.00;90.30;;;;;;5092788;28;20032;-77
2021/01/31 07:56:27;;;;;;;31.45;16.02;;;-0.90;90.30;;;;;;5075067;28;20032;-77
2021/01/31 07:59:18;;;;;;;25.95;15.90;;;-0.90;90.30;;;;;;5092384;28;20484;-77
2021/01/31 08:01:51;;;;;;;26.58;14.90;;;-0.80;90.20;;;;;;5091835;28;20032;-77
2021/01/31 08:04:17;;;;;;;26.77;14.00;;;-0.80;90.10;;;;;;5091895;28;20441;-77
2021/01/31 08:06:42;;;;;;;37.25;15.98;;;-0.80;90.10;;;;;;5092168;28;20107;-77
2021/01/31 08:09:24;;;;;;;40.72;18.80;;;-0.70;90.10;;;;;;5091618;28;20025;-77
2021/01/31 08:11:52;;;;;;;29.58;15.82;;;-0.70;90.00;;;;;;5091615;28;20060;-77
2021/01/31 08:14:55;;;;;;;28.58;16.77;;;-0.60;89.90;;;;;;5091631;28;20500;-77
2021/01/31 08:17:56;;;;;;;30.63;17.17;;;-0.60;90.00;;;;;;5072864;28;20078;-77
2021/01/31 08:20:27;;;;;;;27.42;15.38;;;-0.60;89.90;;;;;;5068286;28;20064;-77
2021/01/31 08:23:25;;;;;;;26.70;14.43;;;-0.50;89.80;;;;;;5091592;28;20027;-76
2021/01/31 08:26:02;;;;;;;28.85;13.88;;;-0.50;89.90;;;;;;5074480;28;20047;-77
2021/01/31 08:28:34;;;;;;;26.15;14.23;;;-0.50;89.70;;;;;;5094290;28;20017;-75
2021/01/31 08:31:02;;;;;;;26.02;14.63;;;-0.30;89.70;;;;;;5095014;28;20028;-75
2021/01/31 08:33:38;;;;;;;24.52;13.52;;;-0.30;89.40;;;;;;5096556;28;20028;-75
2021/01/31 08:36:19;;;;;;;27.42;14.05;;;-0.20;89.20;;;;;;5095237;28;20037;-75
2021/01/31 08:38:53;;;;;;;23.27;13.02;;;-0.10;89.00;;;;;;5094860;28;20032;-75
2021/01/31 08:41:32;;;;;;;22.83;13.13;;;-0.10;88.70;;;;;;5096295;28;20028;-75
2021/01/31 08:44:19;;;;;;;22.63;12.80;;;-0.10;88.60;;;;;;5096302;28;20040;-76
2021/01/31 08:47:00;;;;;;;25.52;13.35;;;0.00;88.50;;;;;;5074843;28;20033;-76
2021/01/31 08:49:26;;;;;;;22.25;13.20;;;0.10;88.30;;;;;;5074512;28;20020;-76
2021/01/31 08:52:09;;;;;;;21.77;13.75;;;0.20;88.10;;;;;;5084540;28;20016;-76
2021/01/31 08:54:35;;;;;;;26.33;14.48;;;0.30;87.70;;;;;;5096008;28;20024;-76
2021/01/31 08:57:11;;;;;;;34.15;15.65;;;0.30;88.10;;;;;;5094794;28;20388;-76
2021/01/31 08:59:39;;;;;;;30.60;15.82;;;0.30;87.30;;;;;;5095874;28;20074;-76
2021/01/31 09:02:14;;;;;;;36.67;18.80;;;0.30;87.40;;;;;;5094289;28;20047;-76
2021/01/31 09:04:46;;;;;;;37.35;18.77;;;0.40;87.30;;;;;;5095776;28;20384;-76
2021/01/31 09:07:19;;;;;;;31.55;16.85;;;0.40;86.70;;;;;;5094246;28;20031;-76
2021/01/31 09:10:11;;;;;;;29.40;16.58;;;0.40;86.80;;;;;;5094608;28;20031;-76
2021/01/31 09:12:37;;;;;;;25.52;15.02;;;0.40;86.90;;;;;;5093468;28;20549;-76
2021/01/31 09:15:16;;;;;;;25.25;14.77;;;0.40;86.90;;;;;;5077727;28;20036;-76
2021/01/31 09:17:42;;;;;;;33.05;16.70;;;0.50;86.80;;;;;;5074212;28;20505;-76
2021/01/31 09:20:24;;;;;;;22.15;14.18;;;0.60;86.60;;;;;;5074045;28;20040;-76
2021/01/31 09:22:51;;;;;;;23.33;13.40;;;0.70;86.40;;;;;;5090361;28;20024;-76
2021/01/31 09:25:20;;;;;;;21.48;13.05;;;0.70;86.30;;;;;;5094753;28;20102;-76
2021/01/31 09:28:03;;;;;;;20.80;13.13;;;0.70;86.10;;;;;;5074161;28;20051;-77
2021/01/31 09:30:29;;;;;;;22.35;12.70;;;0.80;86.00;;;;;;5073859;28;20021;-76
2021/01/31 09:33:03;;;;;;;20.17;12.65;;;0.80;85.80;;;;;;5073860;28;20028;-76
2021/01/31 09:35:33;;;;;;;25.00;13.65;;;0.80;85.80;;;;;;5085166;28;20035;-76
2021/01/31 09:38:22;;;;;;;20.45;12.15;;;0.90;85.80;;;;;;5078417;28;20024;-76
2021/01/31 09:40:49;;;;;;;18.73;11.85;;;1.10;85.70;;;;;;5088050;28;20114;-76
2021/01/31 09:43:20;;;;;;;19.90;12.35;;;1.20;85.30;;;;;;5077193;28;20070;-76
2021/01/31 09:45:52;;;;;;;21.23;12.10;;;1.20;84.90;;;;;;5093448;28;20044;-76
2021/01/31 09:48:22;;;;;;;17.58;10.73;;;1.30;84.90;;;;;;5094839;28;20024;-76
2021/01/31 09:51:03;;;;;;;17.88;11.35;;;1.30;84.50;;;;;;5093867;28;20073;-76
2021/01/31 09:53:33;;;;;;;20.98;11.35;;;1.40;84.60;;;;;;5080921;28;20039;-76
2021/01/31 09:56:01;;;;;;;15.77;10.77;;;1.40;84.10;;;;;;5074768;28;20051;-76
2021/01/31 09:58:31;;;;;;;16.33;10.32;;;1.50;84.20;;;;;;5091453;28;20024;-76
2021/01/31 10:01:08;;;;;;;19.80;11.80;;;1.50;83.80;;;;;;5094567;28;20024;-76
2021/01/31 10:03:34;;;;;;;16.02;10.05;;;1.60;83.20;;;;;;5094075;28;20032;-75
2021/01/31 10:06:05;;;;;;;19.67;10.95;;;1.60;83.10;;;;;;5086006;28;20551;-75
2021/01/31 10:08:32;;;;;;;18.20;10.90;;;1.60;83.00;;;;;;5093103;28;20059;-76
2021/01/31 10:11:29;;;;;;;17.85;11.43;;;1.70;83.40;;;;;;5093316;28;20039;-76
2021/01/31 10:13:55;;;;;;;19.73;11.07;;;1.80;82.80;;;;;;5094466;28;20052;-75
2021/01/31 10:16:24;;;;;;;16.23;9.85;;;1.90;82.10;;;;;;5094571;28;20661;-76
2021/01/31 10:18:50;;;;;;;16.55;10.43;;;1.90;82.00;;;;;;5094241;28;20481;-75
2021/01/31 10:21:33;;;;;;;16.60;10.68;;;2.00;81.90;;;;;;5094282;28;20027;-75
2021/01/31 10:24:03;;;;;;;17.05;10.80;;;2.00;81.40;;;;;;5092883;28;20020;-75
2021/01/31 10:26:29;;;;;;;16.45;10.45;;;2.10;81.10;;;;;;5094767;28;20020;-75
2021/01/31 10:29:00;;;;;;;16.15;10.32;;;2.10;81.30;;;;;;5097953;28;20039;-75
2021/01/31 10:31:33;;;;;;;17.30;10.93;;;2.10;81.30;;;;;;5114745;28;20022;-76
2021/01/31 10:34:01;;;;;;;16.95;10.85;;;2.20;81.70;;;;;;5097527;28;20012;-76
2021/01/31 10:36:37;;;;;;;18.35;10.65;;;2.20;80.90;;;;;;5076320;28;20028;-75
2021/01/31 10:39:25;;;;;;;21.10;11.38;;;2.20;80.70;;;;;;5093760;28;20032;-75
2021/01/31 10:41:52;;;;;;;15.60;10.38;;;2.20;80.20;;;;;;5092644;28;20079;-75
2021/01/31 10:44:26;;;;;;;15.65;9.68;;;2.20;80.60;;;;;;5092624;28;20047;-75
2021/01/31 10:46:52;;;;;;;16.58;11.23;;;2.20;80.50;;;;;;5092676;28;20067;-75
2021/01/31 10:49:18;;;;;;;17.15;10.82;;;2.30;80.50;;;;;;5079874;28;20057;-75
2021/01/31 10:51:45;;;;;;;17.10;10.52;;;2.30;80.30;;;;;;5092190;28;20020;-75
2021/01/31 10:54:13;;;;;;;17.45;10.35;;;2.40;80.30;;;;;;5092603;28;20115;-75
2021/01/31 10:56:38;;;;;;;17.77;10.32;;;2.40;80.10;;;;;;5092060;28;20035;-75
2021/01/31 10:59:05;;;;;;;15.15;10.15;;;2.40;80.00;;;;;;5092291;28;20485;-75
2021/01/31 11:01:31;;;;;;;15.80;10.15;;;2.50;79.90;;;;;;5075511;28;20074;-75
2021/01/31 11:03:57;;;;;;;18.23;10.50;;;2.60;79.90;;;;;;5093980;28;20040;-75
2021/01/31 11:06:23;;;;;;;15.45;10.48;;;2.60;79.50;;;;;;5091657;28;20055;-75
2021/01/31 11:08:49;;;;;;;15.77;10.40;;;2.60;79.30;;;;;;5093652;28;20062;-75
2021/01/31 11:11:15;;;;;;;14.07;9.57;;;2.70;79.20;;;;;;5093226;28;20052;-76
2021/01/31 11:13:41;;;;;;;17.55;10.98;;;2.70;79.20;;;;;;5093313;28;20020;-78
2021/01/31 11:16:07;;;;;;;15.70;9.38;;;2.80;78.90;;;;;;5092355;28;20038;-77
2021/01/31 11:18:32;;;;;;;17.90;10.60;;;2.80;78.90;;;;;;5075488;28;20032;-77
2021/01/31 11:20:58;;;;;;;15.57;9.60;;;2.90;78.90;;;;;;5092195;28;20020;-78
2021/01/31 11:23:24;;;;;;;17.40;10.30;;;2.90;78.70;;;;;;5092221;28;20028;-77
2021/01/31 11:25:50;;;;;;;15.80;10.35;;;3.00;78.80;;;;;;5092863;28;20119;-76
2021/01/31 11:28:17;;;;;;;17.13;10.52;;;3.00;78.20;;;;;;5092275;28;20020;-76
2021/01/31 11:30:43;;;;;;;15.82;9.57;;;3.10;78.40;;;;;;5083024;28;20071;-76
2021/01/31 11:33:09;;;;;;;15.25;9.30;;;3.20;78.30;;;;;;5092119;28;20036;-76
2021/01/31 11:35:35;;;;;;;17.08;10.23;;;3.30;78.10;;;;;;5083231;28;20036;-76
2021/01/31 11:38:01;;;;;;;13.90;9.75;;;3.30;78.00;;;;;;5073259;28;20036;-76
2021/01/31 11:40:27;;;;;;;13.95;9.07;;;3.40;77.50;;;;;;5086322;28;20027;-77
2021/01/31 11:42:53;;;;;;;16.10;9.35;;;3.40;77.40;;;;;;5091597;28;20046;-76
2021/01/31 11:45:20;;;;;;;14.77;9.52;;;3.30;77.20;;;;;;5091531;28;20051;-76
2021/01/31 11:47:45;;;;;;;14.98;9.45;;;3.30;77.00;;;;;;5092726;28;20029;-76
2021/01/31 11:50:12;;;;;;;17.48;10.57;;;3.20;76.90;;;;;;5074947;28;20020;-76
2021/01/31 11:52:38;;;;;;;13.77;9.48;;;3.20;76.90;;;;;;5093151;28;20025;-76
2021/01/31 11:55:05;;;;;;;15.13;9.48;;;3.20;77.10;;;;;;5091643;28;20103;-76
2021/01/31 11:57:30;;;;;;;13.38;9.15;;;3.30;76.80;;;;;;5091819;28;20033;-76
2021/01/31 11:59:56;;;;;;;13.93;9.02;;;3.40;76.50;;;;;;5091890;28;20055;-76
2021/01/31 12:02:22;;;;;;;14.18;8.50;;;3.60;75.90;;;;;;5076401;28;20118;-76
2021/01/31 12:04:48;;;;;;;13.85;8.38;;;3.80;75.10;;;;;;5095695;28;20108;-76
2021/01/31 12:07:13;;;;;;;13.05;8.15;;;4.00;74.30;;;;;;5095304;28;20044;-76
2021/01/31 12:09:39;;;;;;;12.77;8.52;;;4.30;73.70;;;;;;5095661;28;20020;-77
2021/01/31 12:12:06;;;;;;;15.57;9.55;;;4.50;73.20;;;;;;5078583;28;20081;-77
2021/01/31 12:14:32;;;;;;;14.30;9.05;;;4.70;72.10;;;;;;5095000;28;20024;-76
2021/01/31 12:16:57;;;;;;;12.98;8.68;;;4.80;71.40;;;;;;5077640;28;20035;-76
2021/01/31 12:19:23;;;;;;;12.23;8.50;;;4.90;71.20;;;;;;5068803;28;20370;-77
2021/01/31 12:21:50;;;;;;;12.52;8.57;;;5.10;70.60;;;;;;5078005;28;20036;-76
2021/01/31 12:24:16;;;;;;;13.45;8.10;;;5.30;69.70;;;;;;5094887;28;20031;-76
2021/01/31 12:26:42;;;;;;;13.57;8.52;;;5.50;69.90;;;;;;5094939;28;20400;-76
2021/01/31 12:29:08;;;;;;;15.70;8.10;;;5.70;68.50;;;;;;5095588;28;20024;-76
2021/01/31 12:31:33;;;;;;;12.13;8.30;;;5.80;67.50;;;;;;5073557;28;20427;-76
2021/01/31 12:33:59;;;;;;;12.52;8.02;;;5.90;66.40;;;;;;5073270;28;20020;-76
2021/01/31 12:36:25;;;;;;;10.98;7.97;;;5.90;66.70;;;;;;5085763;28;20028;-76
2021/01/31 12:38:50;;;;;;;12.07;7.80;;;6.10;65.90;;;;;;5094831;28;20024;-76
2021/01/31 12:41:16;;;;;;;10.80;7.78;;;6.20;64.80;;;;;;5094187;28;20051;-76
2021/01/31 12:43:42;;;;;;;11.25;7.30;;;6.20;64.80;;;;;;5078156;28;20027;-76
2021/01/31 12:46:08;;;;;;;12.98;8.50;;;6.10;65.30;;;;;;5094574;28;20454;-76
2021/01/31 12:48:33;;;;;;;11.60;7.97;;;5.90;65.40;;;;;;5096026;28;20082;-76
2021/01/31 12:50:59;;;;;;;12.50;7.53;;;5.60;66.70;;;;;;5096061;28;20032;-76
2021/01/31 12:53:24;;;;;;;11.35;8.05;;;5.40;67.70;;;;;;5094904;28;20032;-76
2021/01/31 12:55:50;;;;;;;11.57;8.38;;;5.30;68.40;;;;;;5094872;28;20032;-76
2021/01/31 12:58:16;;;;;;;10.85;7.85;;;5.20;68.90;;;;;;5094608;28;20028;-76
2021/01/31 13:00:41;;;;;;;12.82;8.02;;;5.20;68.50;;;;;;5094586;28;20214;-76
2021/01/31 13:03:07;;;;;;;11.75;7.50;;;5.20;68.90;;;;;;5094514;28;20055;-76